createdAt,value
2023-05-07T00:02:00.618Z,10.50
2023-05-07T00:04:27.540Z,10.55
2023-05-07T00:06:54.057Z,10.65
2023-05-07T00:09:20.831Z,10.65
2023-05-07T00:11:47.362Z,10.50
2023-05-07T00:14:13.923Z,9.95
2023-05-07T00:16:40.575Z,10.85
2023-05-07T00:19:07.197Z,10.75
2023-05-07T00:21:33.905Z,9.82
2023-05-07T00:24:00.478Z,10.52
2023-05-07T00:26:26.986Z,10.00
2023-05-07T00:28:53.884Z,10.45
2023-05-07T00:31:20.508Z,10.15
2023-05-07T00:33:47.660Z,10.93
2023-05-07T00:36:14.293Z,10.60
2023-05-07T00:38:41.558Z,9.65
2023-05-07T00:41:08.365Z,10.07
2023-05-07T00:43:35.228Z,9.80
2023-05-07T00:46:02.207Z,11.00
2023-05-07T00:48:28.831Z,11.00
2023-05-07T00:50:55.479Z,10.25
2023-05-07T00:53:22.411Z,10.32
2023-05-07T00:55:49.135Z,10.70
2023-05-07T00:58:16.026Z,10.05
2023-05-07T01:00:42.655Z,10.88
2023-05-07T01:03:09.588Z,10.13
2023-05-07T01:05:36.727Z,10.82
2023-05-07T01:08:04.721Z,11.13
2023-05-07T01:10:31.667Z,11.30
2023-05-07T01:12:59.815Z,10.45
2023-05-07T01:15:26.674Z,11.30
2023-05-07T01:17:53.811Z,10.60
2023-05-07T01:20:28.799Z,10.82
2023-05-07T01:22:57.255Z,10.02
2023-05-07T01:25:24.263Z,10.93
2023-05-07T01:27:53.737Z,10.55
2023-05-07T01:30:24.044Z,9.63
2023-05-07T01:33:00.520Z,10.60
2023-05-07T01:35:29.937Z,9.77
2023-05-07T01:37:57.071Z,10.38
2023-05-07T01:40:24.034Z,10.68
2023-05-07T01:42:53.961Z,9.98
2023-05-07T01:45:20.868Z,11.00
2023-05-07T01:47:47.592Z,11.10
2023-05-07T01:50:16.334Z,10.70
2023-05-07T01:52:42.797Z,10.20
2023-05-07T01:55:09.518Z,10.60
2023-05-07T01:57:36.434Z,10.90
2023-05-07T02:00:06.098Z,11.13
2023-05-07T02:02:42.116Z,11.43
2023-05-07T02:05:17.395Z,11.68
2023-05-07T02:07:47.492Z,11.73
2023-05-07T02:10:15.116Z,11.27
2023-05-07T02:12:41.877Z,11.80
2023-05-07T02:15:08.687Z,10.88
2023-05-07T02:17:36.620Z,10.63
2023-05-07T02:20:04.850Z,11.75
2023-05-07T02:22:31.624Z,10.77
2023-05-07T02:24:58.244Z,10.57
2023-05-07T02:27:24.832Z,10.20
2023-05-07T02:29:51.601Z,10.60
2023-05-07T02:32:18.390Z,11.07
2023-05-07T02:34:45.103Z,10.23
2023-05-07T02:37:11.704Z,11.15
2023-05-07T02:39:39.367Z,11.15
2023-05-07T02:42:05.996Z,9.80
2023-05-07T02:44:32.844Z,10.30
2023-05-07T02:46:59.426Z,10.25
2023-05-07T02:49:26.152Z,9.57
2023-05-07T02:51:53.046Z,10.43
2023-05-07T02:54:23.369Z,10.65
2023-05-07T02:56:49.969Z,10.88
2023-05-07T02:59:16.705Z,10.18
2023-05-07T03:01:45.100Z,10.90
2023-05-07T03:04:12.680Z,10.50
2023-05-07T03:06:39.286Z,11.05
2023-05-07T03:09:05.867Z,11.25
2023-05-07T03:11:32.424Z,10.70
2023-05-07T03:13:59.020Z,10.23
2023-05-07T03:16:26.033Z,10.63
2023-05-07T03:18:52.668Z,10.90
2023-05-07T03:21:19.390Z,10.10
2023-05-07T03:23:45.905Z,10.60
2023-05-07T03:26:12.473Z,9.45
2023-05-07T03:28:39.523Z,9.65
2023-05-07T03:31:10.468Z,10.02
2023-05-07T03:33:40.489Z,10.15
2023-05-07T03:36:07.120Z,9.73
2023-05-07T03:38:33.752Z,10.50
2023-05-07T03:41:00.580Z,10.45
2023-05-07T03:43:27.266Z,10.02
2023-05-07T03:46:01.512Z,9.93
2023-05-07T03:48:29.152Z,11.07
2023-05-07T03:50:58.612Z,10.65
2023-05-07T03:53:28.541Z,10.02
2023-05-07T03:55:55.092Z,10.43
2023-05-07T03:58:22.001Z,10.38
2023-05-07T04:00:50.180Z,10.43
2023-05-07T04:03:27.102Z,11.13
2023-05-07T04:05:56.864Z,11.38
2023-05-07T04:08:23.501Z,10.60
2023-05-07T04:10:57.136Z,11.18
2023-05-07T04:13:26.085Z,10.55
2023-05-07T04:15:53.247Z,10.73
2023-05-07T04:18:21.151Z,10.35
2023-05-07T04:20:50.351Z,10.15
2023-05-07T04:23:16.962Z,10.35
2023-05-07T04:25:44.022Z,9.98
2023-05-07T04:28:19.925Z,10.32
2023-05-07T04:30:46.637Z,10.68
2023-05-07T04:33:15.060Z,10.98
2023-05-07T04:35:43.084Z,10.77
2023-05-07T04:38:09.766Z,10.30
2023-05-07T04:40:37.212Z,10.90
2023-05-07T04:43:04.203Z,10.98
2023-05-07T04:45:34.113Z,11.50
2023-05-07T04:48:00.922Z,10.75
2023-05-07T04:50:28.179Z,11.68
2023-05-07T04:52:59.584Z,10.68
2023-05-07T04:55:26.537Z,11.20
2023-05-07T04:57:54.095Z,10.77
2023-05-07T05:00:21.658Z,10.85
2023-05-07T05:02:50.607Z,10.13
2023-05-07T05:05:20.566Z,10.80
2023-05-07T05:07:49.798Z,10.02
2023-05-07T05:10:17.357Z,11.02
2023-05-07T05:12:45.413Z,11.00
2023-05-07T05:15:12.938Z,12.75
2023-05-07T05:17:40.374Z,12.23
2023-05-07T05:20:08.514Z,12.27
2023-05-07T05:22:35.703Z,12.15
2023-05-07T05:25:02.394Z,12.00
2023-05-07T05:27:29.628Z,12.70
2023-05-07T05:29:56.471Z,11.52
2023-05-07T05:32:23.103Z,11.93
2023-05-07T05:34:52.045Z,11.10
2023-05-07T05:37:19.046Z,10.93
2023-05-07T05:39:45.864Z,12.00
2023-05-07T05:42:12.585Z,11.07
2023-05-07T05:44:39.558Z,11.13
2023-05-07T05:47:06.493Z,11.70
2023-05-07T05:49:33.577Z,12.07
2023-05-07T05:52:00.382Z,10.30
2023-05-07T05:54:27.700Z,11.18
2023-05-07T05:56:54.547Z,10.85
2023-05-07T05:59:21.272Z,11.15
2023-05-07T06:01:48.157Z,11.27
2023-05-07T06:04:14.848Z,12.23
2023-05-07T06:06:42.030Z,13.30
2023-05-07T06:09:08.672Z,13.13
2023-05-07T06:11:42.037Z,12.02
2023-05-07T06:14:10.061Z,11.85
2023-05-07T06:16:39.096Z,10.50
2023-05-07T06:19:07.166Z,11.68
2023-05-07T06:21:34.115Z,11.63
2023-05-07T06:24:00.762Z,11.23
2023-05-07T06:26:27.528Z,10.50
2023-05-07T06:28:54.414Z,11.85
2023-05-07T06:31:21.669Z,10.80
2023-05-07T06:34:04.274Z,11.57
2023-05-07T06:36:37.156Z,10.40
2023-05-07T06:39:13.272Z,11.65
2023-05-07T06:41:40.044Z,11.05
2023-05-07T06:44:16.200Z,10.45
2023-05-07T06:46:51.431Z,11.05
2023-05-07T06:49:18.344Z,11.00
2023-05-07T06:51:45.401Z,11.85
2023-05-07T06:54:11.989Z,11.23
2023-05-07T06:56:41.856Z,10.48
2023-05-07T06:59:08.746Z,10.90
2023-05-07T07:01:39.379Z,12.35
2023-05-07T07:04:08.232Z,10.68
2023-05-07T07:06:37.123Z,11.50
2023-05-07T07:09:08.874Z,10.82
2023-05-07T07:11:35.785Z,11.32
2023-05-07T07:14:04.774Z,10.40
2023-05-07T07:16:34.476Z,10.90
2023-05-07T07:19:01.910Z,10.95
2023-05-07T07:21:28.681Z,11.25
2023-05-07T07:23:55.507Z,10.93
2023-05-07T07:26:22.247Z,10.18
2023-05-07T07:28:48.848Z,10.85
2023-05-07T07:31:19.628Z,10.48
2023-05-07T07:33:47.835Z,11.25
2023-05-07T07:36:14.401Z,10.00
2023-05-07T07:38:41.314Z,10.32
2023-05-07T07:41:09.324Z,9.63
2023-05-07T07:43:37.054Z,9.75
2023-05-07T07:46:04.527Z,9.88
2023-05-07T07:48:31.691Z,9.60
2023-05-07T07:50:59.393Z,9.82
2023-05-07T07:53:26.468Z,10.60
2023-05-07T07:55:54.434Z,9.48
2023-05-07T07:58:28.021Z,9.80
2023-05-07T08:00:56.967Z,9.20
2023-05-07T08:03:24.548Z,9.27
2023-05-07T08:05:55.375Z,8.98
2023-05-07T08:08:23.516Z,9.18
2023-05-07T08:10:51.661Z,8.95
2023-05-07T08:13:26.184Z,9.50
2023-05-07T08:15:53.552Z,10.07
2023-05-07T08:18:20.382Z,8.88
2023-05-07T08:20:47.440Z,9.52
2023-05-07T08:23:18.278Z,8.23
2023-05-07T08:25:45.893Z,8.48
2023-05-07T08:28:13.296Z,9.00
2023-05-07T08:30:40.801Z,8.38
2023-05-07T08:33:07.468Z,8.60
2023-05-07T08:35:34.336Z,9.20
2023-05-07T08:38:01.520Z,8.20
2023-05-07T08:40:29.371Z,9.15
2023-05-07T08:42:59.128Z,8.38
2023-05-07T08:45:27.457Z,8.38
2023-05-07T08:47:59.512Z,8.27
2023-05-07T08:50:30.544Z,8.82
2023-05-07T08:52:58.716Z,8.85
2023-05-07T08:55:25.442Z,9.50
2023-05-07T08:57:53.724Z,10.13
2023-05-07T09:00:20.582Z,10.00
2023-05-07T09:02:50.833Z,10.90
2023-05-07T09:05:17.692Z,10.60
2023-05-07T09:07:44.363Z,11.32
2023-05-07T09:10:13.232Z,10.70
2023-05-07T09:12:41.969Z,10.35
2023-05-07T09:15:10.912Z,10.88
2023-05-07T09:17:38.987Z,11.80
2023-05-07T09:20:08.594Z,10.45
2023-05-07T09:22:37.762Z,10.48
2023-05-07T09:25:08.316Z,10.95
2023-05-07T09:27:36.613Z,10.77
2023-05-07T09:30:04.398Z,9.82
2023-05-07T09:32:32.538Z,10.35
2023-05-07T09:34:59.525Z,11.25
2023-05-07T09:37:28.030Z,10.18
2023-05-07T09:39:55.543Z,10.85
2023-05-07T09:42:25.577Z,10.25
2023-05-07T09:44:53.475Z,10.77
2023-05-07T09:47:25.185Z,10.93
2023-05-07T09:49:56.938Z,11.35
2023-05-07T09:52:24.856Z,11.85
2023-05-07T09:54:57.136Z,10.93
2023-05-07T09:57:28.457Z,11.45
2023-05-07T10:00:00.963Z,11.65
2023-05-07T10:03:10.896Z,11.30
2023-05-07T10:05:47.352Z,11.43
2023-05-07T10:08:17.930Z,12.35
2023-05-07T10:10:47.396Z,11.55
2023-05-07T10:13:20.030Z,12.50
2023-05-07T10:15:50.229Z,11.70
2023-05-07T10:18:17.958Z,11.88
2023-05-07T10:20:48.841Z,11.38
2023-05-07T10:23:20.367Z,11.15
2023-05-07T10:25:48.764Z,11.00
2023-05-07T10:28:21.101Z,11.75
2023-05-07T10:31:07.716Z,11.50
2023-05-07T10:33:40.822Z,11.23
2023-05-07T10:36:08.992Z,11.95
2023-05-07T10:38:36.196Z,12.00
2023-05-07T10:41:05.779Z,12.02
2023-05-07T10:43:42.196Z,12.20
2023-05-07T10:46:20.007Z,12.35
2023-05-07T10:49:03.075Z,12.88
2023-05-07T10:51:37.367Z,12.27
2023-05-07T10:54:12.080Z,11.98
2023-05-07T10:56:44.640Z,12.00
2023-05-07T10:59:31.666Z,12.10
2023-05-07T11:02:05.614Z,13.50
2023-05-07T11:04:44.626Z,12.57
2023-05-07T11:07:29.565Z,13.15
2023-05-07T11:10:05.846Z,13.23
2023-05-07T11:12:55.959Z,13.40
2023-05-07T11:15:38.963Z,12.60
2023-05-07T11:18:13.732Z,12.63
2023-05-07T11:20:47.591Z,12.07
2023-05-07T11:23:41.676Z,12.70
2023-05-07T11:26:46.038Z,13.25
2023-05-07T11:29:17.825Z,14.07
2023-05-07T11:31:49.705Z,14.38
2023-05-07T11:34:21.481Z,14.23
2023-05-07T11:36:48.557Z,14.15
2023-05-07T11:39:29.390Z,15.40
2023-05-07T11:41:56.250Z,14.45
2023-05-07T11:44:22.832Z,14.48
2023-05-07T11:47:07.674Z,15.15
2023-05-07T11:49:35.259Z,15.18
2023-05-07T11:52:01.769Z,15.35
2023-05-07T11:54:35.789Z,14.73
2023-05-07T11:57:03.863Z,15.45
2023-05-07T11:59:30.572Z,15.48
2023-05-07T12:01:58.646Z,15.38
2023-05-07T12:04:25.405Z,17.25
2023-05-07T12:06:55.173Z,16.80
2023-05-07T12:09:21.799Z,15.68
2023-05-07T12:11:48.665Z,16.65
2023-05-07T12:14:17.031Z,15.45
2023-05-07T12:16:44.159Z,15.85
2023-05-07T12:19:15.672Z,15.57
2023-05-07T12:21:42.854Z,15.68
2023-05-07T12:24:09.429Z,16.00
2023-05-07T12:26:38.758Z,14.98
2023-05-07T12:29:05.492Z,14.68
2023-05-07T12:31:47.567Z,15.30
2023-05-07T12:34:16.769Z,14.00
2023-05-07T12:36:43.315Z,13.80
2023-05-07T12:39:10.006Z,13.93
2023-05-07T12:41:55.538Z,14.60
2023-05-07T12:44:40.158Z,13.55
2023-05-07T12:47:06.797Z,13.82
2023-05-07T12:49:35.528Z,14.77
2023-05-07T12:52:02.118Z,14.07
2023-05-07T12:54:29.399Z,14.98
2023-05-07T12:57:11.351Z,14.95
2023-05-07T12:59:38.529Z,14.45
2023-05-07T13:02:05.657Z,14.18
2023-05-07T13:04:32.288Z,13.63
2023-05-07T13:06:59.048Z,11.93
2023-05-07T13:09:25.754Z,11.15
2023-05-07T13:11:52.235Z,12.55
2023-05-07T13:14:19.310Z,13.95
2023-05-07T13:16:45.901Z,15.00
2023-05-07T13:19:12.477Z,13.25
2023-05-07T13:21:39.095Z,12.13
2023-05-07T13:24:06.025Z,14.13
2023-05-07T13:26:32.677Z,10.55
2023-05-07T13:28:59.387Z,11.93
2023-05-07T13:31:26.327Z,10.60
2023-05-07T13:33:53.825Z,9.88
2023-05-07T13:36:20.825Z,9.18
2023-05-07T13:38:47.626Z,9.23
2023-05-07T13:41:14.286Z,9.00
2023-05-07T13:43:41.039Z,9.23
2023-05-07T13:46:07.944Z,8.70
2023-05-07T13:48:35.852Z,9.75
2023-05-07T13:51:02.531Z,9.48
2023-05-07T13:53:29.134Z,10.75
2023-05-07T13:55:55.788Z,9.15
2023-05-07T13:58:22.310Z,10.07
2023-05-07T14:00:48.944Z,10.27
2023-05-07T14:03:15.996Z,7.50
2023-05-07T14:05:43.117Z,5.40
2023-05-07T14:08:09.752Z,5.07
2023-05-07T14:10:36.348Z,4.57
2023-05-07T14:13:03.496Z,4.40
2023-05-07T14:15:30.124Z,4.88
2023-05-07T14:17:58.596Z,5.60
2023-05-07T14:20:25.289Z,6.18
2023-05-07T14:22:51.893Z,6.15
2023-05-07T14:25:18.712Z,8.27
2023-05-07T14:27:49.931Z,8.35
2023-05-07T14:30:17.928Z,9.48
2023-05-07T14:32:44.451Z,10.75
2023-05-07T14:35:11.564Z,9.73
2023-05-07T14:37:38.203Z,8.65
2023-05-07T14:40:04.935Z,6.00
2023-05-07T14:42:31.470Z,6.85
2023-05-07T14:44:58.022Z,9.70
2023-05-07T14:47:24.590Z,9.40
2023-05-07T14:49:51.222Z,7.00
2023-05-07T14:52:17.792Z,10.38
2023-05-07T14:54:44.320Z,6.82
2023-05-07T14:57:14.227Z,6.03
2023-05-07T14:59:40.873Z,6.20
2023-05-07T15:02:09.213Z,8.70
2023-05-07T15:04:38.490Z,9.32
2023-05-07T15:07:05.159Z,9.05
2023-05-07T15:09:31.680Z,7.88
2023-05-07T15:11:58.469Z,10.73
2023-05-07T15:14:25.209Z,9.43
2023-05-07T15:16:51.885Z,10.30
2023-05-07T15:19:18.564Z,10.07
2023-05-07T15:21:45.034Z,7.38
2023-05-07T15:24:11.672Z,7.78
2023-05-07T15:26:38.312Z,7.82
2023-05-07T15:29:09.215Z,7.38
2023-05-07T15:31:36.027Z,8.75
2023-05-07T15:34:02.733Z,8.07
2023-05-07T15:36:29.424Z,8.60
2023-05-07T15:38:56.151Z,7.93
2023-05-07T15:41:22.943Z,8.60
2023-05-07T15:43:50.849Z,7.97
2023-05-07T15:46:25.461Z,8.43
2023-05-07T15:48:52.924Z,8.00
2023-05-07T15:51:19.499Z,8.77
2023-05-07T15:53:46.312Z,10.35
2023-05-07T15:56:13.086Z,11.13
2023-05-07T15:58:39.658Z,7.95
2023-05-07T16:01:06.284Z,6.60
2023-05-07T16:03:33.004Z,4.63
2023-05-07T16:06:02.463Z,4.45
2023-05-07T16:08:29.491Z,3.33
2023-05-07T16:10:56.017Z,3.72
2023-05-07T16:13:24.890Z,4.55
2023-05-07T16:16:00.552Z,5.22
2023-05-07T16:18:27.181Z,4.50
2023-05-07T16:20:54.609Z,6.07
2023-05-07T16:23:21.691Z,6.88
2023-05-07T16:25:49.068Z,7.18
2023-05-07T16:28:16.015Z,7.68
2023-05-07T16:30:42.574Z,8.38
2023-05-07T16:33:09.281Z,8.60
2023-05-07T16:35:35.753Z,7.88
2023-05-07T16:38:02.416Z,7.30
2023-05-07T16:40:28.980Z,7.18
2023-05-07T16:42:55.733Z,7.32
2023-05-07T16:45:23.341Z,6.45
2023-05-07T16:47:50.084Z,6.22
2023-05-07T16:50:16.657Z,6.88
2023-05-07T16:52:43.380Z,7.10
2023-05-07T16:55:10.047Z,7.93
2023-05-07T16:57:37.111Z,7.90
2023-05-07T17:00:09.072Z,7.93
2023-05-07T17:02:36.190Z,8.15
2023-05-07T17:05:03.812Z,7.70
2023-05-07T17:07:30.966Z,6.40
2023-05-07T17:09:57.572Z,5.70
2023-05-07T17:12:24.190Z,4.75
2023-05-07T17:14:50.797Z,5.43
2023-05-07T17:17:17.396Z,5.88
2023-05-07T17:19:44.153Z,7.63
2023-05-07T17:22:10.992Z,8.13
2023-05-07T17:24:37.697Z,8.65
2023-05-07T17:27:04.278Z,8.85
2023-05-07T17:29:31.389Z,10.07
2023-05-07T17:31:58.439Z,10.77
2023-05-07T17:34:25.225Z,11.27
2023-05-07T17:36:52.263Z,10.73
2023-05-07T17:39:18.733Z,10.50
2023-05-07T17:41:46.322Z,10.18
2023-05-07T17:44:13.287Z,11.15
2023-05-07T17:46:39.882Z,9.70
2023-05-07T17:49:06.414Z,11.68
2023-05-07T17:51:45.876Z,12.23
2023-05-07T17:54:19.535Z,14.02
2023-05-07T17:56:46.450Z,14.77
2023-05-07T17:59:13.972Z,14.80
2023-05-07T18:01:42.124Z,13.65
2023-05-07T18:04:08.817Z,12.73
2023-05-07T18:06:35.632Z,13.20
2023-05-07T18:09:02.913Z,11.77
2023-05-07T18:11:29.603Z,11.63
2023-05-07T18:13:56.375Z,11.07
2023-05-07T18:16:23.023Z,11.60
2023-05-07T18:18:49.671Z,11.07
2023-05-07T18:21:19.090Z,11.50
2023-05-07T18:23:46.072Z,11.52
2023-05-07T18:26:12.649Z,11.85
2023-05-07T18:28:39.432Z,11.93
2023-05-07T18:31:05.915Z,10.77
2023-05-07T18:33:32.522Z,10.88
2023-05-07T18:35:59.073Z,10.82
2023-05-07T18:38:25.620Z,10.90
2023-05-07T18:40:52.084Z,9.43
2023-05-07T18:43:22.077Z,10.27
2023-05-07T18:45:48.805Z,9.65
2023-05-07T18:48:16.919Z,9.90
2023-05-07T18:50:44.061Z,10.25
2023-05-07T18:53:13.701Z,10.15
2023-05-07T18:55:41.342Z,9.82
2023-05-07T18:58:07.892Z,12.18
2023-05-07T19:00:34.547Z,11.13
2023-05-07T19:03:01.130Z,10.70
2023-05-07T19:05:27.733Z,10.55
2023-05-07T19:07:54.463Z,9.50
2023-05-07T19:10:21.325Z,9.73
2023-05-07T19:12:48.029Z,9.93
2023-05-07T19:15:14.581Z,8.68
2023-05-07T19:17:41.092Z,9.98
2023-05-07T19:22:34.669Z,9.98
2023-05-07T19:25:01.480Z,10.43
2023-05-07T19:27:28.047Z,10.43
2023-05-07T19:29:54.663Z,9.90
2023-05-07T19:32:21.588Z,10.35
2023-05-07T19:34:48.324Z,9.27
2023-05-07T19:37:14.880Z,9.40
2023-05-07T19:39:41.540Z,10.98
2023-05-07T19:42:08.205Z,10.35
2023-05-07T19:44:35.698Z,10.60
2023-05-07T19:47:03.673Z,11.13
2023-05-07T19:49:30.361Z,10.85
2023-05-07T19:51:57.350Z,10.93
2023-05-07T19:54:24.018Z,11.00
2023-05-07T19:56:50.673Z,11.68
2023-05-07T19:59:17.301Z,12.85
2023-05-07T20:01:43.994Z,12.32
2023-05-07T20:04:10.873Z,14.05
2023-05-07T20:06:37.524Z,13.05
2023-05-07T20:09:04.282Z,12.82
2023-05-07T20:11:31.851Z,13.57
2023-05-07T20:13:58.406Z,12.85
2023-05-07T20:16:25.057Z,13.27
2023-05-07T20:18:51.752Z,13.45
2023-05-07T20:22:04.057Z,13.05
2023-05-07T20:24:30.883Z,13.38
2023-05-07T20:26:57.401Z,14.23
2023-05-07T20:29:24.347Z,14.45
2023-05-07T20:31:51.635Z,13.95
2023-05-07T20:34:18.299Z,13.98
2023-05-07T20:36:46.420Z,14.10
2023-05-07T20:39:15.993Z,13.85
2023-05-07T20:41:44.096Z,14.40
2023-05-07T20:44:11.054Z,14.40
2023-05-07T20:46:38.447Z,14.00
2023-05-07T20:49:05.078Z,13.93
2023-05-07T20:51:33.083Z,14.73
2023-05-07T20:53:59.668Z,14.73
2023-05-07T20:56:26.792Z,16.00
2023-05-07T20:58:53.410Z,14.15
2023-05-07T21:01:20.001Z,15.32
2023-05-07T21:03:46.619Z,15.60
2023-05-07T21:06:13.205Z,15.23
2023-05-07T21:08:39.907Z,15.65
2023-05-07T21:11:06.376Z,15.88
2023-05-07T21:13:33.062Z,15.40
2023-05-07T21:16:02.347Z,16.10
2023-05-07T21:18:30.944Z,16.52
2023-05-07T21:20:57.513Z,16.20
2023-05-07T21:23:24.137Z,15.65
2023-05-07T21:25:51.883Z,17.02
2023-05-07T21:28:18.561Z,17.63
2023-05-07T21:30:45.110Z,17.30
2023-05-07T21:33:11.758Z,16.45
2023-05-07T21:35:38.319Z,18.38
2023-05-07T21:38:04.990Z,18.27
2023-05-07T21:40:31.661Z,19.10
2023-05-07T21:42:58.702Z,18.77
2023-05-07T21:45:25.485Z,18.48
2023-05-07T21:47:52.220Z,20.25
2023-05-07T21:50:19.097Z,19.48
2023-05-07T21:52:45.812Z,19.33
2023-05-07T21:55:12.576Z,19.48
2023-05-07T21:57:43.652Z,19.98
2023-05-07T22:00:12.885Z,20.75
2023-05-07T22:02:39.746Z,20.30
2023-05-07T22:05:06.511Z,18.90
2023-05-07T22:07:33.244Z,20.48
2023-05-07T22:09:59.898Z,21.23
2023-05-07T22:12:26.560Z,21.05
2023-05-07T22:14:53.279Z,20.35
2023-05-07T22:17:20.209Z,20.77
2023-05-07T22:19:47.074Z,19.88
2023-05-07T22:22:13.765Z,20.15
2023-05-07T22:24:40.389Z,20.20
2023-05-07T22:27:06.938Z,18.88
2023-05-07T22:29:33.969Z,19.40
2023-05-07T22:32:00.602Z,18.58
2023-05-07T22:34:27.493Z,19.40
2023-05-07T22:36:54.097Z,19.02
2023-05-07T22:39:20.864Z,19.50
2023-05-07T22:41:47.543Z,18.70
2023-05-07T22:44:14.172Z,19.42
2023-05-07T22:46:40.622Z,19.73
2023-05-07T22:49:16.572Z,19.80
2023-05-07T22:51:43.228Z,19.05
2023-05-07T22:54:09.702Z,19.85
2023-05-07T22:56:36.574Z,18.98
2023-05-07T22:59:03.109Z,18.17
2023-05-07T23:01:29.835Z,17.48
2023-05-07T23:03:56.578Z,16.77
2023-05-07T23:06:23.165Z,17.85
2023-05-07T23:08:49.657Z,16.63
2023-05-07T23:11:16.638Z,16.50
2023-05-07T23:13:43.253Z,16.77
2023-05-07T23:16:09.933Z,16.52
2023-05-07T23:18:36.648Z,15.15
2023-05-07T23:21:03.281Z,15.20
2023-05-07T23:23:33.716Z,17.25
2023-05-07T23:26:00.493Z,17.92
2023-05-07T23:28:27.091Z,17.88
2023-05-07T23:30:53.785Z,18.33
2023-05-07T23:33:20.501Z,19.05
2023-05-07T23:35:47.120Z,19.27
2023-05-07T23:38:13.705Z,19.33
2023-05-07T23:40:40.387Z,19.38
2023-05-07T23:43:06.958Z,20.85
2023-05-07T23:45:33.646Z,20.65
2023-05-07T23:48:00.407Z,19.92
2023-05-07T23:50:27.075Z,18.55
2023-05-07T23:52:53.571Z,21.50
2023-05-07T23:55:20.255Z,20.05
2023-05-07T23:57:46.712Z,19.83
